< < Back
Terminal Aerodrome Forecast


Current Version              Previous Versions:   1  2  3  4  5  6  7  8  9  

Terminal Aerodrome Forecast

389
FTUS44 KBMX 241121
TAFMGM
TAF
KMGM 241121Z 2412/2512 16003KT P6SM FEW250=

Latest METAR

222
SAUS80 KWBC 251600 RRB
MTRMGM
METAR KMGM 251553Z VRB03KT 10SM CLR 29/15 A3021 RMK AO2 SLP228
T02940150


USA.gov is the U.S. government's official web portal to all federal, state and local government web resources and services.